Valtellina — ICKF — position and weather

sailwx.info

Track history (hours):
 
Tides and Currents Weather Stations Pressure Air Temp Water Temp Dewpoint Dewpoint Depression Visibility Wind Speed Wind Dir Waves Ship Positions

Valtellina

Last reported at 2017-Jan-16 21:32 UTC. Time now 2017-Jan-16 21:56 UTC.
Position N 39°33' E 002°38'.

Length 184 m; draft 10.3 m.

Type: Ship (hazmat cat A). MMSI: 247243900.

Date/timePositionNaut miles runAvg speedWind from/ knotsBaromVisibWave heightAir tempDewpointWater temp
2017-Jan-16 21:32N 39°33' E 002°38'0 0.0
2017-Jan-16 20:32N 39°33' E 002°38'0 0.0
2017-Jan-16 19:32N 39°33' E 002°38'0 0.0
2017-Jan-16 18:32N 39°33' E 002°38'0 0.0
2017-Jan-16 17:32N 39°33' E 002°38'1 1.2
2017-Jan-16 16:33N 39°32' E 002°39'8 8.3
2017-Jan-16 15:33N 39°24' E 002°40'1211.9
2017-Jan-16 14:33N 39°13' E 002°45'1111.2
2017-Jan-16 13:33N 39°03' E 002°53'1211.7
2017-Jan-16 12:33N 39°02' E 003°08'1212.1
2017-Jan-16 11:33N 39°01' E 003°23'1211.6
2017-Jan-16 10:33N 38°60' E 003°38'237 8.4
2017-Jan-15 06:20N 38°48' E 008°42'810.6
2017-Jan-15 05:33N 38°48' E 008°53'1212.0
2017-Jan-15 04:33N 38°57' E 009°04'9 9.3
2017-Jan-15 03:33N 39°06' E 009°05'3 2.6
2017-Jan-15 02:33N 39°05' E 009°02'0 0.0
2017-Jan-15 01:33N 39°05' E 009°02'0 0.0
2017-Jan-15 00:30N 39°05' E 009°02'0 0.0
2017-Jan-14 23:33N 39°05' E 009°02'0 0.0
2017-Jan-14 22:33N 39°05' E 009°02'0 0.0
2017-Jan-14 21:33N 39°05' E 009°02'0 0.0
2017-Jan-14 20:33N 39°05' E 009°02'0 0.0
2017-Jan-14 19:33N 39°05' E 009°02'0 0.0
2017-Jan-14 18:33N 39°05' E 009°02'0 0.0
2017-Jan-14 17:33N 39°05' E 009°02'0 0.0
2017-Jan-14 16:33N 39°05' E 009°02'0 0.0
2017-Jan-14 15:33N 39°05' E 009°02'0 0.0
2017-Jan-14 14:33N 39°05' E 009°02'0 0.0
2017-Jan-14 13:33N 39°05' E 009°02'0 0.0
2017-Jan-14 12:33N 39°05' E 009°02'0 0.0
2017-Jan-14 11:33N 39°05' E 009°02'0 0.0
2017-Jan-14 10:33N 39°05' E 009°02'0 0.0
2017-Jan-14 09:33N 39°05' E 009°02'0 0.0
2017-Jan-14 08:33N 39°05' E 009°02'0 0.0
2017-Jan-14 07:33N 39°05' E 009°02'0 0.0
2017-Jan-14 06:33N 39°05' E 009°02'0 0.0
2017-Jan-14 05:33N 39°05' E 009°02'0 0.0
2017-Jan-14 04:33N 39°05' E 009°02'0 0.0
2017-Jan-14 03:33N 39°05' E 009°02'0 0.0
2017-Jan-13 23:33N 39°05' E 009°02'0 0.0
2017-Jan-13 22:33N 39°05' E 009°02'0 0.0
2017-Jan-13 21:33N 39°05' E 009°02'0 0.0
2017-Jan-13 20:33N 39°05' E 009°02'0 0.0
2017-Jan-13 19:33N 39°05' E 009°02'0 0.0
2017-Jan-13 18:33N 39°05' E 009°02'0 0.0
2017-Jan-13 17:33N 39°05' E 009°02'2 1.7
2017-Jan-13 16:32N 39°05' E 009°04'1 0.9
2017-Jan-13 15:31N 39°04' E 009°04'0 0.0
2017-Jan-13 14:31N 39°04' E 009°04'0 0.1
2017-Jan-13 13:31N 39°04' E 009°04'0 0.0
2017-Jan-13 12:31N 39°04' E 009°04'0 0.3
2017-Jan-13 11:31N 39°04' E 009°04'0 0.0
2017-Jan-13 10:31N 39°04' E 009°04'0 0.0
2017-Jan-13 09:31N 39°04' E 009°04'0 0.0
2017-Jan-13 08:31N 39°04' E 009°04'0 0.1
2017-Jan-13 07:31N 39°04' E 009°04'0 0.0
2017-Jan-13 06:31N 39°04' E 009°04'0 0.0
2017-Jan-13 05:31N 39°04' E 009°04'0 0.0
2017-Jan-13 04:31N 39°04' E 009°04'0 0.0
2017-Jan-13 03:28N 39°04' E 009°04'0 0.0
2017-Jan-13 02:31N 39°04' E 009°04'0 0.0
2017-Jan-13 01:31N 39°04' E 009°04'0 0.0
2017-Jan-13 00:31N 39°04' E 009°04'0 0.0
2017-Jan-12 23:31N 39°04' E 009°04'0 0.0
2017-Jan-12 22:31N 39°04' E 009°04'0 0.0
2017-Jan-12 21:31N 39°04' E 009°04'0 0.0
2017-Jan-12 20:28N 39°04' E 009°04'0 0.0
2017-Jan-12 19:31N 39°04' E 009°04'0 0.1
2017-Jan-12 18:31N 39°04' E 009°04'0 0.0
2017-Jan-12 17:31N 39°04' E 009°04'0 0.0
2017-Jan-12 16:31N 39°04' E 009°04'0 0.0
2017-Jan-12 15:31N 39°04' E 009°04'0 0.0
2017-Jan-12 14:31N 39°04' E 009°04'0 0.0
2017-Jan-12 13:31N 39°04' E 009°04'0 0.1
2017-Jan-12 12:31N 39°04' E 009°04'0 0.0
2017-Jan-12 11:31N 39°04' E 009°04'0 0.1
2017-Jan-12 10:31N 39°04' E 009°04'0 0.2
2017-Jan-12 09:31N 39°04' E 009°04'0 0.0
2017-Jan-12 08:31N 39°04' E 009°04'0 0.1
2017-Jan-12 07:31N 39°04' E 009°04'0 0.0
2017-Jan-12 06:31N 39°04' E 009°04'0 0.0
2017-Jan-12 05:31N 39°04' E 009°04'0 0.0
2017-Jan-12 04:31N 39°04' E 009°04'0 0.0
2017-Jan-12 03:28N 39°04' E 009°04'0 0.0
2017-Jan-12 02:31N 39°04' E 009°04'0 0.0
2017-Jan-12 01:31N 39°04' E 009°04'0 0.0
2017-Jan-12 00:31N 39°04' E 009°04'0 0.1
2017-Jan-11 23:28N 39°04' E 009°04'0 0.1
2017-Jan-11 22:31N 39°04' E 009°04'0 0.0
2017-Jan-11 21:31N 39°04' E 009°04'0 0.0
2017-Jan-11 20:31N 39°04' E 009°04'0 0.0
2017-Jan-11 19:31N 39°04' E 009°04'0 0.0
2017-Jan-11 18:31N 39°04' E 009°04'0 0.0
2017-Jan-11 17:31N 39°04' E 009°04'0 0.1
2017-Jan-11 16:33N 39°04' E 009°04'8 8.2
2017-Jan-11 15:33N 38°56' E 009°03'1211.7
2017-Jan-11 14:33N 38°48' E 008°52'  
Track history (hours):
 
Tides and Currents Weather Stations Pressure Air Temp Water Temp Dewpoint Dewpoint Depression Visibility Wind Speed Wind Dir Waves Ship Positions

Valtellina

Last reported at 2017-Jan-16 21:32 UTC. Time now 2017-Jan-16 21:56 UTC.
Position N 39°33' E 002°38'.

Length 184 m; draft 10.3 m.

Type: Ship (hazmat cat A). MMSI: 247243900.

Date/timePositionNaut miles runAvg speedWind from/ knotsBaromVisibWave heightAir tempDewpointWater temp
2017-Jan-16 21:32N 39°33' E 002°38'0 0.0
2017-Jan-16 20:32N 39°33' E 002°38'0 0.0
2017-Jan-16 19:32N 39°33' E 002°38'0 0.0
2017-Jan-16 18:32N 39°33' E 002°38'0 0.0
2017-Jan-16 17:32N 39°33' E 002°38'1 1.2
2017-Jan-16 16:33N 39°32' E 002°39'8 8.3
2017-Jan-16 15:33N 39°24' E 002°40'1211.9
2017-Jan-16 14:33N 39°13' E 002°45'1111.2
2017-Jan-16 13:33N 39°03' E 002°53'1211.7
2017-Jan-16 12:33N 39°02' E 003°08'1212.1
2017-Jan-16 11:33N 39°01' E 003°23'1211.6
2017-Jan-16 10:33N 38°60' E 003°38'237 8.4
2017-Jan-15 06:20N 38°48' E 008°42'810.6
2017-Jan-15 05:33N 38°48' E 008°53'1212.0
2017-Jan-15 04:33N 38°57' E 009°04'9 9.3
2017-Jan-15 03:33N 39°06' E 009°05'3 2.6
2017-Jan-15 02:33N 39°05' E 009°02'0 0.0
2017-Jan-15 01:33N 39°05' E 009°02'0 0.0
2017-Jan-15 00:30N 39°05' E 009°02'0 0.0
2017-Jan-14 23:33N 39°05' E 009°02'0 0.0
2017-Jan-14 22:33N 39°05' E 009°02'0 0.0
2017-Jan-14 21:33N 39°05' E 009°02'0 0.0
2017-Jan-14 20:33N 39°05' E 009°02'0 0.0
2017-Jan-14 19:33N 39°05' E 009°02'0 0.0
2017-Jan-14 18:33N 39°05' E 009°02'0 0.0
2017-Jan-14 17:33N 39°05' E 009°02'0 0.0
2017-Jan-14 16:33N 39°05' E 009°02'0 0.0
2017-Jan-14 15:33N 39°05' E 009°02'0 0.0
2017-Jan-14 14:33N 39°05' E 009°02'0 0.0
2017-Jan-14 13:33N 39°05' E 009°02'0 0.0
2017-Jan-14 12:33N 39°05' E 009°02'0 0.0
2017-Jan-14 11:33N 39°05' E 009°02'0 0.0
2017-Jan-14 10:33N 39°05' E 009°02'0 0.0
2017-Jan-14 09:33N 39°05' E 009°02'0 0.0
2017-Jan-14 08:33N 39°05' E 009°02'0 0.0
2017-Jan-14 07:33N 39°05' E 009°02'0 0.0
2017-Jan-14 06:33N 39°05' E 009°02'0 0.0
2017-Jan-14 05:33N 39°05' E 009°02'0 0.0
2017-Jan-14 04:33N 39°05' E 009°02'0 0.0
2017-Jan-14 03:33N 39°05' E 009°02'0 0.0
2017-Jan-13 23:33N 39°05' E 009°02'0 0.0
2017-Jan-13 22:33N 39°05' E 009°02'0 0.0
2017-Jan-13 21:33N 39°05' E 009°02'0 0.0
2017-Jan-13 20:33N 39°05' E 009°02'0 0.0
2017-Jan-13 19:33N 39°05' E 009°02'0 0.0
2017-Jan-13 18:33N 39°05' E 009°02'0 0.0
2017-Jan-13 17:33N 39°05' E 009°02'2 1.7
2017-Jan-13 16:32N 39°05' E 009°04'1 0.9
2017-Jan-13 15:31N 39°04' E 009°04'0 0.0
2017-Jan-13 14:31N 39°04' E 009°04'0 0.1
2017-Jan-13 13:31N 39°04' E 009°04'0 0.0
2017-Jan-13 12:31N 39°04' E 009°04'0 0.3
2017-Jan-13 11:31N 39°04' E 009°04'0 0.0
2017-Jan-13 10:31N 39°04' E 009°04'0 0.0
2017-Jan-13 09:31N 39°04' E 009°04'0 0.0
2017-Jan-13 08:31N 39°04' E 009°04'0 0.1
2017-Jan-13 07:31N 39°04' E 009°04'0 0.0
2017-Jan-13 06:31N 39°04' E 009°04'0 0.0
2017-Jan-13 05:31N 39°04' E 009°04'0 0.0
2017-Jan-13 04:31N 39°04' E 009°04'0 0.0
2017-Jan-13 03:28N 39°04' E 009°04'0 0.0
2017-Jan-13 02:31N 39°04' E 009°04'0 0.0
2017-Jan-13 01:31N 39°04' E 009°04'0 0.0
2017-Jan-13 00:31N 39°04' E 009°04'0 0.0
2017-Jan-12 23:31N 39°04' E 009°04'0 0.0
2017-Jan-12 22:31N 39°04' E 009°04'0 0.0
2017-Jan-12 21:31N 39°04' E 009°04'0 0.0
2017-Jan-12 20:28N 39°04' E 009°04'0 0.0
2017-Jan-12 19:31N 39°04' E 009°04'0 0.1
2017-Jan-12 18:31N 39°04' E 009°04'0 0.0
2017-Jan-12 17:31N 39°04' E 009°04'0 0.0
2017-Jan-12 16:31N 39°04' E 009°04'0 0.0
2017-Jan-12 15:31N 39°04' E 009°04'0 0.0
2017-Jan-12 14:31N 39°04' E 009°04'0 0.0
2017-Jan-12 13:31N 39°04' E 009°04'0 0.1
2017-Jan-12 12:31N 39°04' E 009°04'0 0.0
2017-Jan-12 11:31N 39°04' E 009°04'0 0.1
2017-Jan-12 10:31N 39°04' E 009°04'0 0.2
2017-Jan-12 09:31N 39°04' E 009°04'0 0.0
2017-Jan-12 08:31N 39°04' E 009°04'0 0.1
2017-Jan-12 07:31N 39°04' E 009°04'0 0.0
2017-Jan-12 06:31N 39°04' E 009°04'0 0.0
2017-Jan-12 05:31N 39°04' E 009°04'0 0.0
2017-Jan-12 04:31N 39°04' E 009°04'0 0.0
2017-Jan-12 03:28N 39°04' E 009°04'0 0.0
2017-Jan-12 02:31N 39°04' E 009°04'0 0.0
2017-Jan-12 01:31N 39°04' E 009°04'0 0.0
2017-Jan-12 00:31N 39°04' E 009°04'0 0.1
2017-Jan-11 23:28N 39°04' E 009°04'0 0.1
2017-Jan-11 22:31N 39°04' E 009°04'0 0.0
2017-Jan-11 21:31N 39°04' E 009°04'0 0.0
2017-Jan-11 20:31N 39°04' E 009°04'0 0.0
2017-Jan-11 19:31N 39°04' E 009°04'0 0.0
2017-Jan-11 18:31N 39°04' E 009°04'0 0.0
2017-Jan-11 17:31N 39°04' E 009°04'0 0.1
2017-Jan-11 16:33N 39°04' E 009°04'8 8.2
2017-Jan-11 15:33N 38°56' E 009°03'1211.7
2017-Jan-11 14:33N 38°48' E 008°52'  

Dump ship's entire track history